-->

Nearby METAR Reports

 

EBAW - Antwerpen, Belgium
Distance from station: NW 22km
Updated: 2021-10-19 11:20
Overcast
Overcast
 Wind from SSW
Wind: SSW 15 km/h
Temperature: 16°C
Dew Point: 15°C
Humidity: 94%
Barometer: 1017 hPa
Clouds: Overcast
Visibility: 6 km
Cloud details: Partly cloudy 122 m
Overcast 152 m
2021/10/19 09:20 EBAW 190920Z 20008KT 170V230 6000 SCT004 OVC005 16/15 Q1017 TEMPO 3000 -DZ BKN004
EBBR - Brussel, Belgium
Distance from station: SW 24km
Updated: 2021-10-19 11:20
Overcast
Overcast
 Wind from SSW
Wind: SSW 17 km/h
Temperature: 16°C
Dew Point: 15°C
Humidity: 94%
Barometer: 1018 hPa
Clouds: Overcast
Visibility: 6 km
Cloud details: Overcast 213 m
2021/10/19 09:20 EBBR 190920Z 21009KT 6000 OVC007 16/15 Q1018 TEMPO 4000 -DZ
 
EBDT - Schaffen, Belgium
Distance from station: ESE 26km
Updated: 2021-10-19 11:25
Overcast
Overcast
 Wind from SSW
Wind: SSW 15 km/h
Temperature: 16°C
Dew Point: 15°C
Humidity: 94%
Barometer: 1018 hPa
Clouds: Overcast
Visibility: 3 km
Cloud details: Overcast 152 m
2021/10/19 09:25 EBDT 190925Z AUTO 20008KT 3200 OVC005/// 16/15 Q1018 YLO
EBBE - Beauvechain, Belgium
Distance from station: S 36km
Updated: 2021-10-19 11:25
Rain drizzle, Mostly cloudy
Rain drizzle, Mostly cloudy
 Wind from SSW
Wind: SSW 22 km/h
Temperature: 16°C
Dew Point: 15°C
Humidity: 94%
Barometer: 1018 hPa
Summary: Rain Drizzle
Clouds: Mostly cloudy
Visibility: 2 km
Cloud details: Mostly cloudy 91 m
Mostly cloudy 152 m
2021/10/19 09:25 EBBE 190925Z 21012KT 2000 RADZ BKN003 BKN005 16/15 Q1018 YLO YLO
 
EHWO - Woensdrecht Rnla, Netherlands
Distance from station: NNW 50km
Updated: 2021-10-19 11:25
Mist, Overcast
Mist, Overcast
 Wind from SW
Wind: SW 19 km/h
Temperature: 17°C
Dew Point: 17°C
Humidity: 100%
Barometer: 1016 hPa
Summary: Mist
Clouds: Overcast
Visibility: 3 km
Cloud details: Mostly cloudy 122 m
Overcast 152 m
2021/10/19 09:25 EHWO 190925Z AUTO 22010KT 190V250 2700 BR BKN004 OVC005 17/17 Q1016 YLO
EBBL - Kleine-Brogel, Belgium
Distance from station: ENE 54km
Updated: 2021-10-19 11:25
Mostly cloudy
Mostly cloudy
 Wind from SSW
Wind: SSW 17 km/h
Temperature: 16°C
Dew Point: 15°C
Humidity: 94%
Barometer: 1017 hPa
Clouds: Mostly cloudy
Visibility: 8 km
Cloud details: Mostly cloudy 122 m
Mostly cloudy 183 m
2021/10/19 09:25 EBBL 190925Z 21009KT 8000 BKN004 BKN006 16/15 Q1017 YLO YLO
 
EHGR - Gilze-Rijen Rnla, Netherlands
Distance from station: NNE 57km
Updated: 2021-10-19 11:25
Mist, Overcast
Mist, Overcast
 Wind from SSW
Wind: SSW 17 km/h
Temperature: 16°C
Dew Point: 16°C
Humidity: 100%
Barometer: 1016 hPa
Summary: Mist
Clouds: Overcast
Visibility: 3 km
Cloud details: Mostly cloudy 61 m
Overcast 91 m
2021/10/19 09:25 EHGR 190925Z AUTO 20009KT 170V240 3000 R28/2900U BR BKN002 OVC003 16/16 Q1016 REDZ AMB TEMPO 1500 DZ SCT002 BKN003 OVC005
EHEH - Eindhoven Rnlafb, Netherlands
Distance from station: NE 63km
Updated: 2021-10-19 11:25
Mist, Overcast
Mist, Overcast
 Wind from SSW
Wind: SSW 19 km/h
Temperature: 16°C
Dew Point: 16°C
Humidity: 100%
Barometer: 1017 hPa
Summary: Mist
Clouds: Overcast
Visibility: 3 km
Cloud details: Few Clouds 91 m
Mostly cloudy 122 m
Overcast 183 m
2021/10/19 09:25 EHEH 190925Z AUTO 20010KT 3100 R21/P3000U BR FEW003 BKN004 OVC006 16/16 Q1017 REDZ YLO TEMPO 2000 BR RADZ SCT002 OVC003
 
EBCI - Charleroi, Belgium
Distance from station: SSW 70km
Updated: 2021-10-19 11:20
Light drizzle, Mist, Mostly cloudy
Light drizzle, Mist, Mostly cloudy
 Wind from SSW
Wind: SSW 24 km/h
Temperature: 16°C
Dew Point: 15°C
Humidity: 94%
Barometer: 1019 hPa
Summary: Light drizzle, Mist
Clouds: Mostly cloudy
Visibility: 4 km
Cloud details: Mostly cloudy 91 m
Mostly cloudy 152 m
2021/10/19 09:20 EBCI 190920Z 21013KT 3500 -DZ BR BKN003 BKN005 16/15 Q1019 BECMG 6000 NSW
EBLG - Bierset, Belgium
Distance from station: SE 72km
Updated: 2021-10-19 11:20
Light drizzle, Overcast
Light drizzle, Overcast
 Wind from SSW
Wind: SSW 26 km/h
Temperature: 15°C
Dew Point: 14°C
Humidity: 94%
Barometer: 1019 hPa
Summary: Light Drizzle
Clouds: Overcast
Visibility: 5 km
Cloud details: Mostly cloudy 152 m
Overcast 183 m
2021/10/19 09:20 EBLG 190920Z 21014KT 5000 -DZ BKN005 OVC006 15/14 Q1019 TEMPO 4000 -DZ BKN004
Benelux Weer Netwerk cwop awekas hwa wcloud pwsweather wow wow